Terminal Aerodrome Forecast
Issued by NWS Grand Forks, ND

Home | Current Version | Previous Version | Text Only | Print | Product List | Glossary Off
Versions: 1 2 3 4 5 6 7 8 9 10 11 12 13 14 15 16

000
FTUS43 KFGF 271100
TAFGFK
TAF
KGFK 271122Z 2712/2812 34016G22KT P6SM BKN015
     FM271700 35017G23KT P6SM BKN040
     FM280100 33009KT P6SM SCT050=

USA.gov is the U.S. government's official web portal to all federal, state and local government web resources and services.